Nathaniel B. Palmer — WBP3210 — position and weather

sailwx.info

Track history (hours):
 
Tides and Currents Weather Stations Pressure Air Temp Water Temp Dewpoint Dewpoint Depression Visibility Wind Speed Wind Dir Waves Ship Positions

Oceanographic research ship Nathaniel B. Palmer (USA)

Contact: Ethan Norris, ethan.norris.contractor@usap.gov

Detailed information on ship capabilities available from University of Delaware's Ocean Information Center and ARCUS's ALIAS (Arctic Logistics Information and Support) project.

Owner: OFFSHORE SERVICE VESSELS, GALLIANO, LA. More information available from US FCC via Universal Licensing System and Coast Guard Vessel Documentation Center.

Last reported at 2016-May-24 09:00 UTC. Time now 2016-May-24 11:49 UTC.
Position S 53°06' W 070°54'.

Type: Other ship. MMSI: 366610000.

Wind from 190 at 3 knots

Barometer 1018.6 mb
Air temperature 6.3 ° C
Water temperature 7.8 ° C

Date/timePositionNaut miles runAvg speedWind from/ knotsBaromVisibWave heightAir tempDewpointWater temp
2016-May-24 09:00S 53°06' W 070°54'0 0.0 190 / 31018.6 6.3 7.8
2016-May-24 08:00S 53°06' W 070°54'0 0.0 270 / 81018.5 6.1 7.8
2016-May-24 07:00S 53°06' W 070°54'0 0.0 270 / 81018.0 6.4 7.8
2016-May-24 06:00S 53°06' W 070°54'0 0.0 270 / 81017.9 6.8 7.8
2016-May-24 04:00S 53°06' W 070°54'0 0.0 280 / 81017.0 7.4 7.8
2016-May-24 03:00S 53°06' W 070°54'0 0.0 270 / 101016.4 7.7 7.8
2016-May-24 02:00S 53°06' W 070°54'0 0.0 270 / 91016.1 7.7 7.8
2016-May-23 23:00S 53°06' W 070°54'0 0.0 270 / 111014.1 8.3 7.8
2016-May-23 20:00S 53°06' W 070°54'0 0.0 270 / 151012.9 9.5 7.8
2016-May-23 19:00S 53°06' W 070°54'0 0.0 260 / 131012.7 9.8 7.8
2016-May-23 18:00S 53°06' W 070°54'0 0.0 280 / 151012.4 10.2 7.8
2016-May-23 17:00S 53°06' W 070°54'0 0.0 270 / 211012.7 9.9 7.8
2016-May-23 16:00S 53°06' W 070°54'0 0.0 280 / 111013.7 9.4 7.8
2016-May-23 15:00S 53°06' W 070°54'0 0.0 050 / 31014.3 6.3 7.8
2016-May-23 14:00S 53°06' W 070°54'0 0.0 070 / 31014.4 5.6 7.8
2016-May-23 13:00S 53°06' W 070°54'0 0.0 170 / 21014.9 4.9 7.8
2016-May-23 11:00S 53°06' W 070°54'0 0.0 250 / 21015.4 4.3 7.8
2016-May-23 10:00S 53°06' W 070°54'0 0.0 050 / 21015.9 4.2 7.8
2016-May-23 09:00S 53°06' W 070°54'0 0.0 060 / 31016.3 5.0 7.8
2016-May-23 08:00S 53°06' W 070°54'0 0.0 310 / 21016.7 4.9 7.8
2016-May-23 07:00S 53°06' W 070°54'0 0.0 240 / 21016.9 5.2 7.8
2016-May-23 06:00S 53°06' W 070°54'0 0.0 250 / 41017.7 5.4 7.8
2016-May-23 05:00S 53°06' W 070°54'0 0.0 280 / 71018.0 5.7 7.8
2016-May-23 04:00S 53°06' W 070°54'0 0.0 290 / 111018.3 5.4 7.8
2016-May-23 03:00S 53°06' W 070°54'0 0.0 310 / 121018.6 5.3 7.8
2016-May-23 01:00S 53°06' W 070°54'0 0.0 250 / 51019.2 6.4 7.8
2016-May-23 00:00S 53°06' W 070°54'0 0.0 230 / 71019.1 6.0 7.8
2016-May-22 23:00S 53°06' W 070°54'0 0.0 240 / 111019.0 6.1 7.8
2016-May-22 20:00S 53°06' W 070°54'0 0.0 260 / 141019.6 6.7 7.8
2016-May-22 18:00S 53°06' W 070°54'0 0.0 270 / 151019.9 7.0 7.8
2016-May-22 17:00S 53°06' W 070°54'0 0.0 270 / 141020.4 6.9 7.8
2016-May-22 16:00S 53°06' W 070°54'0 0.0 280 / 121020.6 6.5 7.8
2016-May-22 15:00S 53°06' W 070°54'0 0.0 280 / 101020.6 6.2 7.8
2016-May-22 14:00S 53°06' W 070°54'0 0.0 270 / 121020.4 5.9 7.8
2016-May-22 12:00S 53°06' W 070°54'0 0.0 260 / 71020.0 5.6 7.8
2016-May-22 11:00S 53°06' W 070°54'0 0.0 260 / 131019.4 5.7 7.8
2016-May-22 10:00S 53°06' W 070°54'0 0.0 250 / 131019.0 6.0 7.8
2016-May-22 05:00S 53°06' W 070°54'0 0.0 280 / 71018.7 5.6 7.8
2016-May-22 04:00S 53°06' W 070°54'0 0.0 290 / 71018.3 5.3 7.8
2016-May-22 03:00S 53°06' W 070°54'0 0.0 270 / 121018.2 5.6 7.8
2016-May-22 02:00S 53°06' W 070°54'0 0.0 240 / 81018.1 6.1 7.8
2016-May-22 01:00S 53°06' W 070°54'0 0.0 250 / 141016.8 6.0 7.8
2016-May-22 00:00S 53°06' W 070°54'0 0.0 240 / 111016.1 6.0 7.8
2016-May-21 23:00S 53°06' W 070°54'0 0.0 250 / 151015.3 6.3 7.8
2016-May-21 22:00S 53°06' W 070°54'0 0.0 260 / 191014.1 6.5 7.8
2016-May-21 21:00S 53°06' W 070°54'0 0.0 260 / 241012.6 6.9 7.8
2016-May-21 20:00S 53°06' W 070°54'0 0.0 260 / 241011.9 7.3 7.8
2016-May-21 15:00S 53°06' W 070°54'0 0.0 270 / 251009.6 6.5 7.8
2016-May-21 14:00S 53°06' W 070°54'0 0.0 270 / 231008.9 6.7 1.3 7.8
2016-May-21 13:00S 53°06' W 070°54'0 0.0 270 / 271008.0 6.9 7.8
2016-May-21 12:00S 53°06' W 070°54'0 0.0 270 / 191007.2 7.0 1.5 7.8
2016-May-21 11:00S 53°06' W 070°54'0 0.0 260 / 141006.5 7.7 7.8
2016-May-21 10:00S 53°06' W 070°54'0 0.0 270 / 161006.0 7.5 7.8
2016-May-21 09:00S 53°06' W 070°54'0 0.0 280 / 221005.2 7.9 7.8
2016-May-21 08:00S 53°06' W 070°54'0 0.0 270 / 201004.9 8.9 5.4 7.8
2016-May-21 06:00S 53°06' W 070°54'0 0.0 300 / 281003.7 9.2 4.3 7.8
2016-May-21 05:00S 53°06' W 070°54'0 0.0 310 / 341004.6 9.3 3.9 7.8
2016-May-21 04:00S 53°06' W 070°54'0 0.0 310 / 241006.5 9.0 7.8
2016-May-21 02:00S 53°06' W 070°54'0 0.0 020 / 101009.2 8.8 3.6 7.8
2016-May-20 21:00S 53°06' W 070°54'0 0.0 330 / 51014.0 8.6 7.8
2016-May-20 19:00S 53°06' W 070°54'0 0.0 340 / 91014.9 9.0 7.8
2016-May-20 17:00S 53°06' W 070°54'0 0.0 330 / 51015.8 9.5 7.8
2016-May-20 16:00S 53°06' W 070°54'0 0.0 030 / 51015.8 9.2 7.8
2016-May-20 15:00S 53°06' W 070°54'0 0.0 280 / 61015.9 8.6 7.8
2016-May-20 11:00S 53°06' W 070°54'0 0.0 230 / 71016.7 8.3 3.1 7.8
2016-May-20 08:00S 53°06' W 070°54'0 0.0 260 / 61017.5 8.6 3.0 7.8
2016-May-20 05:00S 53°06' W 070°54'0 0.0 280 / 151017.4 9.1 3.3 7.8
2016-May-20 03:00S 53°06' W 070°54'0 0.0 270 / 141017.2 8.7 7.8
2016-May-19 23:00S 53°06' W 070°54'0 0.0 280 / 101016.9 8.5 4.3 7.8
2016-May-19 20:00S 53°06' W 070°54'0 0.0 290 / 141015.9 8.8 7.8
2016-May-19 19:00S 53°06' W 070°54'0 0.0 290 / 171015.7 8.7 5.0 7.8
2016-May-19 18:00S 53°06' W 070°54'0 0.0 290 / 201015.3 8.8 7.8
2016-May-19 04:00S 53°06' W 070°54'0 0.0 270 / 81013.5 8.5 7.8
2016-May-19 01:00S 53°06' W 070°54'0 0.0 130 / 11013.6 5.5 4.6 7.8
2016-May-18 23:00S 53°06' W 070°54'0 0.0 210 / 31014.3 5.1 7.8
2016-May-18 13:00S 53°06' W 070°54'0 0.0 290 / 41018.3 3.7 2.9 7.8
2016-May-18 11:00S 53°06' W 070°54'0 0.0 290 / 51018.8 3.9 2.5 7.8
2016-May-18 09:00S 53°06' W 070°54'0 0.0 010 / 41019.5 6.3 4.7 7.8
2016-May-18 07:00S 53°06' W 070°54'0 0.0 020 / 41020.5 6.7 7.8
2016-May-18 05:00S 53°06' W 070°54'0 0.0 200 / 11020.9 6.3 5.1 7.8
2016-May-18 00:00S 53°06' W 070°54'0 0.0 030 / 51021.8 6.4 7.8
2016-May-17 23:00S 53°06' W 070°54'0 0.0 030 / 61021.8 6.5 5.0 7.8
2016-May-17 22:00S 53°06' W 070°54'0 0.0 030 / 31022.0 6.6 7.8
2016-May-17 14:00S 53°06' W 070°54'0 0.0 030 / 21023.0 5.9 4.2 7.8
2016-May-17 13:00S 53°06' W 070°54'0 0.0 070 / 21023.0 5.5 4.1 7.8
2016-May-17 08:00S 53°06' W 070°54'0 0.0 350 / 31023.3 3.4 7.8
2016-May-17 02:00S 53°06' W 070°54'0 0.0 250 / 11023.2 3.4 3.0 7.8
2016-May-16 21:00S 53°06' W 070°54'0 0.0 080 / 21023.1 5.3 4.6 7.8
2016-May-16 20:00S 53°06' W 070°54'0 0.0 100 / 21022.9 5.2 4.4 7.8
2016-May-16 17:00S 53°06' W 070°54'0 0.0 230 / 21024.1 4.9 3.9 7.8
2016-May-16 16:00S 53°06' W 070°54'0 0.0 180 / 21024.3 5.2 7.8
2016-May-16 15:00S 53°06' W 070°54'0 0.0 160 / 11024.1 4.9 7.8
2016-May-16 14:00S 53°06' W 070°54'0 0.0 290 / 31024.1 3.9 7.8
2016-May-16 13:00S 53°06' W 070°54'0 0.0 330 / 31024.2 4.0 7.8
2016-May-16 11:00S 53°06' W 070°54'0 0.0 280 / 41024.3 3.7 7.8
2016-May-16 10:00S 53°06' W 070°54'0 0.0 250 / 31024.3 3.9 7.8
2016-May-16 09:00S 53°06' W 070°54'0 0.0 270 / 31024.4 4.6 7.8
2016-May-16 07:00S 53°06' W 070°54'0 0.0 240 / 21024.9 5.5 7.8
2016-May-16 05:00S 53°06' W 070°54'0 0.0 240 / 11025.0 5.5 7.8
2016-May-16 03:00S 53°06' W 070°54'0 0.0 220 / 41025.3 5.5 7.8
2016-May-15 23:00S 53°06' W 070°54'0 0.0 310 / 21026.0 6.3 7.8
2016-May-15 22:00S 53°06' W 070°54'0 0.0 360 / 51026.3 6.7 7.8
2016-May-15 19:00S 53°06' W 070°54'0 0.0 020 / 101026.7 6.8 7.8
2016-May-15 18:00S 53°06' W 070°54'0 0.0 020 / 101026.7 6.9 7.8
2016-May-15 17:00S 53°06' W 070°54'0 0.0 020 / 111027.1 6.9 7.8
2016-May-15 16:00S 53°06' W 070°54'0 0.0 020 / 101027.6 7.0 7.8
2016-May-15 15:00S 53°06' W 070°54'0 0.0 020 / 111027.7 6.9 7.8
2016-May-15 13:00S 53°06' W 070°54'0 0.0 030 / 131027.8 6.6 7.8
2016-May-15 12:00S 53°06' W 070°54'0 0.0 030 / 121027.8 6.6 7.8
2016-May-15 11:00S 53°06' W 070°54'0 0.0 030 / 131027.8 6.4 7.8
2016-May-15 10:00S 53°06' W 070°54'0 0.0 030 / 121027.8 6.6 7.8
2016-May-15 09:00S 53°06' W 070°54'0 0.0 030 / 91028.0 6.3 7.8
2016-May-15 08:00S 53°06' W 070°54'0 0.0 020 / 101028.1 6.4 7.8
2016-May-15 07:00S 53°06' W 070°54'0 0.0 030 / 121028.0 6.3 7.8
2016-May-15 06:00S 53°06' W 070°54'0 0.0 030 / 111028.2 6.1 7.8
2016-May-15 04:00S 53°06' W 070°54'0 0.0 040 / 121028.0 6.1 7.8
2016-May-15 03:00S 53°06' W 070°54'0 0.0 040 / 111027.7 6.2 7.8
2016-May-15 01:00S 53°06' W 070°54'0 0.0 060 / 81027.4 6.2 7.8
2016-May-15 00:00S 53°06' W 070°54'0 0.0 040 / 81027.2 6.3 7.8
2016-May-14 23:00S 53°06' W 070°54'0 0.0 050 / 111027.0 6.3 7.8
2016-May-14 20:00S 53°06' W 070°54'0 0.0 050 / 81026.4 6.3 7.8
2016-May-14 18:00S 53°06' W 070°54'0 0.0 060 / 51026.2 6.1 7.8
2016-May-14 17:00S 53°06' W 070°54'0 0.0 060 / 51026.5 5.7 7.8
2016-May-14 16:00S 53°06' W 070°54'0 0.0 050 / 61026.2 5.9 7.8
2016-May-14 15:00S 53°06' W 070°54'0 0.0 050 / 71025.8 5.6 7.8
2016-May-14 14:00S 53°06' W 070°54'0 0.0 050 / 71025.6 5.7 7.8
2016-May-14 13:00S 53°06' W 070°54'0 0.0 350 / 31025.3 5.7 7.8
2016-May-14 12:00S 53°06' W 070°54'0 0.0 030 / 51024.9 5.9 7.8
2016-May-14 11:00S 53°06' W 070°54'0 0.0 050 / 61024.7 5.3 7.8
2016-May-14 10:00S 53°06' W 070°54'0 0.0 250 / 11024.4 4.8 7.8
2016-May-14 09:00S 53°06' W 070°54'   220 / 31024.1 4.6 7.8
Track history (hours):
 
Tides and Currents Weather Stations Pressure Air Temp Water Temp Dewpoint Dewpoint Depression Visibility Wind Speed Wind Dir Waves Ship Positions

Oceanographic research ship Nathaniel B. Palmer (USA)

Contact: Ethan Norris, ethan.norris.contractor@usap.gov

Detailed information on ship capabilities available from University of Delaware's Ocean Information Center and ARCUS's ALIAS (Arctic Logistics Information and Support) project.

Owner: OFFSHORE SERVICE VESSELS, GALLIANO, LA. More information available from US FCC via Universal Licensing System and Coast Guard Vessel Documentation Center.

Last reported at 2016-May-24 09:00 UTC. Time now 2016-May-24 11:49 UTC.
Position S 53°06' W 070°54'.

Type: Other ship. MMSI: 366610000.

Wind from 190 at 3 knots

Barometer 1018.6 mb
Air temperature 6.3 ° C
Water temperature 7.8 ° C

Date/timePositionNaut miles runAvg speedWind from/ knotsBaromVisibWave heightAir tempDewpointWater temp
2016-May-24 09:00S 53°06' W 070°54'0 0.0 190 / 31018.6 6.3 7.8
2016-May-24 08:00S 53°06' W 070°54'0 0.0 270 / 81018.5 6.1 7.8
2016-May-24 07:00S 53°06' W 070°54'0 0.0 270 / 81018.0 6.4 7.8
2016-May-24 06:00S 53°06' W 070°54'0 0.0 270 / 81017.9 6.8 7.8
2016-May-24 04:00S 53°06' W 070°54'0 0.0 280 / 81017.0 7.4 7.8
2016-May-24 03:00S 53°06' W 070°54'0 0.0 270 / 101016.4 7.7 7.8
2016-May-24 02:00S 53°06' W 070°54'0 0.0 270 / 91016.1 7.7 7.8
2016-May-23 23:00S 53°06' W 070°54'0 0.0 270 / 111014.1 8.3 7.8
2016-May-23 20:00S 53°06' W 070°54'0 0.0 270 / 151012.9 9.5 7.8
2016-May-23 19:00S 53°06' W 070°54'0 0.0 260 / 131012.7 9.8 7.8
2016-May-23 18:00S 53°06' W 070°54'0 0.0 280 / 151012.4 10.2 7.8
2016-May-23 17:00S 53°06' W 070°54'0 0.0 270 / 211012.7 9.9 7.8
2016-May-23 16:00S 53°06' W 070°54'0 0.0 280 / 111013.7 9.4 7.8
2016-May-23 15:00S 53°06' W 070°54'0 0.0 050 / 31014.3 6.3 7.8
2016-May-23 14:00S 53°06' W 070°54'0 0.0 070 / 31014.4 5.6 7.8
2016-May-23 13:00S 53°06' W 070°54'0 0.0 170 / 21014.9 4.9 7.8
2016-May-23 11:00S 53°06' W 070°54'0 0.0 250 / 21015.4 4.3 7.8
2016-May-23 10:00S 53°06' W 070°54'0 0.0 050 / 21015.9 4.2 7.8
2016-May-23 09:00S 53°06' W 070°54'0 0.0 060 / 31016.3 5.0 7.8
2016-May-23 08:00S 53°06' W 070°54'0 0.0 310 / 21016.7 4.9 7.8
2016-May-23 07:00S 53°06' W 070°54'0 0.0 240 / 21016.9 5.2 7.8
2016-May-23 06:00S 53°06' W 070°54'0 0.0 250 / 41017.7 5.4 7.8
2016-May-23 05:00S 53°06' W 070°54'0 0.0 280 / 71018.0 5.7 7.8
2016-May-23 04:00S 53°06' W 070°54'0 0.0 290 / 111018.3 5.4 7.8
2016-May-23 03:00S 53°06' W 070°54'0 0.0 310 / 121018.6 5.3 7.8
2016-May-23 01:00S 53°06' W 070°54'0 0.0 250 / 51019.2 6.4 7.8
2016-May-23 00:00S 53°06' W 070°54'0 0.0 230 / 71019.1 6.0 7.8
2016-May-22 23:00S 53°06' W 070°54'0 0.0 240 / 111019.0 6.1 7.8
2016-May-22 20:00S 53°06' W 070°54'0 0.0 260 / 141019.6 6.7 7.8
2016-May-22 18:00S 53°06' W 070°54'0 0.0 270 / 151019.9 7.0 7.8
2016-May-22 17:00S 53°06' W 070°54'0 0.0 270 / 141020.4 6.9 7.8
2016-May-22 16:00S 53°06' W 070°54'0 0.0 280 / 121020.6 6.5 7.8
2016-May-22 15:00S 53°06' W 070°54'0 0.0 280 / 101020.6 6.2 7.8
2016-May-22 14:00S 53°06' W 070°54'0 0.0 270 / 121020.4 5.9 7.8
2016-May-22 12:00S 53°06' W 070°54'0 0.0 260 / 71020.0 5.6 7.8
2016-May-22 11:00S 53°06' W 070°54'0 0.0 260 / 131019.4 5.7 7.8
2016-May-22 10:00S 53°06' W 070°54'0 0.0 250 / 131019.0 6.0 7.8
2016-May-22 05:00S 53°06' W 070°54'0 0.0 280 / 71018.7 5.6 7.8
2016-May-22 04:00S 53°06' W 070°54'0 0.0 290 / 71018.3 5.3 7.8
2016-May-22 03:00S 53°06' W 070°54'0 0.0 270 / 121018.2 5.6 7.8
2016-May-22 02:00S 53°06' W 070°54'0 0.0 240 / 81018.1 6.1 7.8
2016-May-22 01:00S 53°06' W 070°54'0 0.0 250 / 141016.8 6.0 7.8
2016-May-22 00:00S 53°06' W 070°54'0 0.0 240 / 111016.1 6.0 7.8
2016-May-21 23:00S 53°06' W 070°54'0 0.0 250 / 151015.3 6.3 7.8
2016-May-21 22:00S 53°06' W 070°54'0 0.0 260 / 191014.1 6.5 7.8
2016-May-21 21:00S 53°06' W 070°54'0 0.0 260 / 241012.6 6.9 7.8
2016-May-21 20:00S 53°06' W 070°54'0 0.0 260 / 241011.9 7.3 7.8
2016-May-21 15:00S 53°06' W 070°54'0 0.0 270 / 251009.6 6.5 7.8
2016-May-21 14:00S 53°06' W 070°54'0 0.0 270 / 231008.9 6.7 1.3 7.8
2016-May-21 13:00S 53°06' W 070°54'0 0.0 270 / 271008.0 6.9 7.8
2016-May-21 12:00S 53°06' W 070°54'0 0.0 270 / 191007.2 7.0 1.5 7.8
2016-May-21 11:00S 53°06' W 070°54'0 0.0 260 / 141006.5 7.7 7.8
2016-May-21 10:00S 53°06' W 070°54'0 0.0 270 / 161006.0 7.5 7.8
2016-May-21 09:00S 53°06' W 070°54'0 0.0 280 / 221005.2 7.9 7.8
2016-May-21 08:00S 53°06' W 070°54'0 0.0 270 / 201004.9 8.9 5.4 7.8
2016-May-21 06:00S 53°06' W 070°54'0 0.0 300 / 281003.7 9.2 4.3 7.8
2016-May-21 05:00S 53°06' W 070°54'0 0.0 310 / 341004.6 9.3 3.9 7.8
2016-May-21 04:00S 53°06' W 070°54'0 0.0 310 / 241006.5 9.0 7.8
2016-May-21 02:00S 53°06' W 070°54'0 0.0 020 / 101009.2 8.8 3.6 7.8
2016-May-20 21:00S 53°06' W 070°54'0 0.0 330 / 51014.0 8.6 7.8
2016-May-20 19:00S 53°06' W 070°54'0 0.0 340 / 91014.9 9.0 7.8
2016-May-20 17:00S 53°06' W 070°54'0 0.0 330 / 51015.8 9.5 7.8
2016-May-20 16:00S 53°06' W 070°54'0 0.0 030 / 51015.8 9.2 7.8
2016-May-20 15:00S 53°06' W 070°54'0 0.0 280 / 61015.9 8.6 7.8
2016-May-20 11:00S 53°06' W 070°54'0 0.0 230 / 71016.7 8.3 3.1 7.8
2016-May-20 08:00S 53°06' W 070°54'0 0.0 260 / 61017.5 8.6 3.0 7.8
2016-May-20 05:00S 53°06' W 070°54'0 0.0 280 / 151017.4 9.1 3.3 7.8
2016-May-20 03:00S 53°06' W 070°54'0 0.0 270 / 141017.2 8.7 7.8
2016-May-19 23:00S 53°06' W 070°54'0 0.0 280 / 101016.9 8.5 4.3 7.8
2016-May-19 20:00S 53°06' W 070°54'0 0.0 290 / 141015.9 8.8 7.8
2016-May-19 19:00S 53°06' W 070°54'0 0.0 290 / 171015.7 8.7 5.0 7.8
2016-May-19 18:00S 53°06' W 070°54'0 0.0 290 / 201015.3 8.8 7.8
2016-May-19 04:00S 53°06' W 070°54'0 0.0 270 / 81013.5 8.5 7.8
2016-May-19 01:00S 53°06' W 070°54'0 0.0 130 / 11013.6 5.5 4.6 7.8
2016-May-18 23:00S 53°06' W 070°54'0 0.0 210 / 31014.3 5.1 7.8
2016-May-18 13:00S 53°06' W 070°54'0 0.0 290 / 41018.3 3.7 2.9 7.8
2016-May-18 11:00S 53°06' W 070°54'0 0.0 290 / 51018.8 3.9 2.5 7.8
2016-May-18 09:00S 53°06' W 070°54'0 0.0 010 / 41019.5 6.3 4.7 7.8
2016-May-18 07:00S 53°06' W 070°54'0 0.0 020 / 41020.5 6.7 7.8
2016-May-18 05:00S 53°06' W 070°54'0 0.0 200 / 11020.9 6.3 5.1 7.8
2016-May-18 00:00S 53°06' W 070°54'0 0.0 030 / 51021.8 6.4 7.8
2016-May-17 23:00S 53°06' W 070°54'0 0.0 030 / 61021.8 6.5 5.0 7.8
2016-May-17 22:00S 53°06' W 070°54'0 0.0 030 / 31022.0 6.6 7.8
2016-May-17 14:00S 53°06' W 070°54'0 0.0 030 / 21023.0 5.9 4.2 7.8
2016-May-17 13:00S 53°06' W 070°54'0 0.0 070 / 21023.0 5.5 4.1 7.8
2016-May-17 08:00S 53°06' W 070°54'0 0.0 350 / 31023.3 3.4 7.8
2016-May-17 02:00S 53°06' W 070°54'0 0.0 250 / 11023.2 3.4 3.0 7.8
2016-May-16 21:00S 53°06' W 070°54'0 0.0 080 / 21023.1 5.3 4.6 7.8
2016-May-16 20:00S 53°06' W 070°54'0 0.0 100 / 21022.9 5.2 4.4 7.8
2016-May-16 17:00S 53°06' W 070°54'0 0.0 230 / 21024.1 4.9 3.9 7.8
2016-May-16 16:00S 53°06' W 070°54'0 0.0 180 / 21024.3 5.2 7.8
2016-May-16 15:00S 53°06' W 070°54'0 0.0 160 / 11024.1 4.9 7.8
2016-May-16 14:00S 53°06' W 070°54'0 0.0 290 / 31024.1 3.9 7.8
2016-May-16 13:00S 53°06' W 070°54'0 0.0 330 / 31024.2 4.0 7.8
2016-May-16 11:00S 53°06' W 070°54'0 0.0 280 / 41024.3 3.7 7.8
2016-May-16 10:00S 53°06' W 070°54'0 0.0 250 / 31024.3 3.9 7.8
2016-May-16 09:00S 53°06' W 070°54'0 0.0 270 / 31024.4 4.6 7.8
2016-May-16 07:00S 53°06' W 070°54'0 0.0 240 / 21024.9 5.5 7.8
2016-May-16 05:00S 53°06' W 070°54'0 0.0 240 / 11025.0 5.5 7.8
2016-May-16 03:00S 53°06' W 070°54'0 0.0 220 / 41025.3 5.5 7.8
2016-May-15 23:00S 53°06' W 070°54'0 0.0 310 / 21026.0 6.3 7.8
2016-May-15 22:00S 53°06' W 070°54'0 0.0 360 / 51026.3 6.7 7.8
2016-May-15 19:00S 53°06' W 070°54'0 0.0 020 / 101026.7 6.8 7.8
2016-May-15 18:00S 53°06' W 070°54'0 0.0 020 / 101026.7 6.9 7.8
2016-May-15 17:00S 53°06' W 070°54'0 0.0 020 / 111027.1 6.9 7.8
2016-May-15 16:00S 53°06' W 070°54'0 0.0 020 / 101027.6 7.0 7.8
2016-May-15 15:00S 53°06' W 070°54'0 0.0 020 / 111027.7 6.9 7.8
2016-May-15 13:00S 53°06' W 070°54'0 0.0 030 / 131027.8 6.6 7.8
2016-May-15 12:00S 53°06' W 070°54'0 0.0 030 / 121027.8 6.6 7.8
2016-May-15 11:00S 53°06' W 070°54'0 0.0 030 / 131027.8 6.4 7.8
2016-May-15 10:00S 53°06' W 070°54'0 0.0 030 / 121027.8 6.6 7.8
2016-May-15 09:00S 53°06' W 070°54'0 0.0 030 / 91028.0 6.3 7.8
2016-May-15 08:00S 53°06' W 070°54'0 0.0 020 / 101028.1 6.4 7.8
2016-May-15 07:00S 53°06' W 070°54'0 0.0 030 / 121028.0 6.3 7.8
2016-May-15 06:00S 53°06' W 070°54'0 0.0 030 / 111028.2 6.1 7.8
2016-May-15 04:00S 53°06' W 070°54'0 0.0 040 / 121028.0 6.1 7.8
2016-May-15 03:00S 53°06' W 070°54'0 0.0 040 / 111027.7 6.2 7.8
2016-May-15 01:00S 53°06' W 070°54'0 0.0 060 / 81027.4 6.2 7.8
2016-May-15 00:00S 53°06' W 070°54'0 0.0 040 / 81027.2 6.3 7.8
2016-May-14 23:00S 53°06' W 070°54'0 0.0 050 / 111027.0 6.3 7.8
2016-May-14 20:00S 53°06' W 070°54'0 0.0 050 / 81026.4 6.3 7.8
2016-May-14 18:00S 53°06' W 070°54'0 0.0 060 / 51026.2 6.1 7.8
2016-May-14 17:00S 53°06' W 070°54'0 0.0 060 / 51026.5 5.7 7.8
2016-May-14 16:00S 53°06' W 070°54'0 0.0 050 / 61026.2 5.9 7.8
2016-May-14 15:00S 53°06' W 070°54'0 0.0 050 / 71025.8 5.6 7.8
2016-May-14 14:00S 53°06' W 070°54'0 0.0 050 / 71025.6 5.7 7.8
2016-May-14 13:00S 53°06' W 070°54'0 0.0 350 / 31025.3 5.7 7.8
2016-May-14 12:00S 53°06' W 070°54'0 0.0 030 / 51024.9 5.9 7.8
2016-May-14 11:00S 53°06' W 070°54'0 0.0 050 / 61024.7 5.3 7.8
2016-May-14 10:00S 53°06' W 070°54'0 0.0 250 / 11024.4 4.8 7.8
2016-May-14 09:00S 53°06' W 070°54'   220 / 31024.1 4.6 7.8

Dump ship's entire track history